createdAt,value
2023-04-13T00:00:57.983Z,8.60
2023-04-13T00:05:04.046Z,8.50
2023-04-13T00:09:09.107Z,8.50
2023-04-13T00:13:12.938Z,8.60
2023-04-13T00:17:16.392Z,8.70
2023-04-13T00:21:20.973Z,8.60
2023-04-13T00:25:25.922Z,8.50
2023-04-13T00:29:29.380Z,8.60
2023-04-13T00:33:33.029Z,8.60
2023-04-13T00:37:36.685Z,8.50
2023-04-13T00:41:41.744Z,8.60
2023-04-13T00:45:45.243Z,8.50
2023-04-13T00:49:48.970Z,8.50
2023-04-13T00:53:52.808Z,8.40
2023-04-13T00:57:59.618Z,8.50
2023-04-13T01:02:05.826Z,8.40
2023-04-13T01:06:18.015Z,8.40
2023-04-13T01:10:28.029Z,8.50
2023-04-13T01:14:39.085Z,8.50
2023-04-13T01:18:45.422Z,8.50
2023-04-13T01:22:54.686Z,8.50
2023-04-13T01:27:08.163Z,8.40
2023-04-13T01:31:14.055Z,8.20
2023-04-13T01:35:20.194Z,8.10
2023-04-13T01:39:32.237Z,8.00
2023-04-13T01:43:36.641Z,7.80
2023-04-13T01:47:48.550Z,7.60
2023-04-13T01:51:54.896Z,7.60
2023-04-13T01:56:01.164Z,7.50
2023-04-13T02:00:15.546Z,7.40
2023-04-13T02:04:21.275Z,7.40
2023-04-13T02:08:25.051Z,7.40
2023-04-13T02:12:28.866Z,7.30
2023-04-13T02:16:32.554Z,7.30
2023-04-13T02:20:40.630Z,7.30
2023-04-13T02:24:44.163Z,7.30
2023-04-13T02:28:47.615Z,7.20
2023-04-13T02:32:51.355Z,7.20
2023-04-13T02:36:56.296Z,7.30
2023-04-13T02:41:00.977Z,7.30
2023-04-13T02:45:06.239Z,7.30
2023-04-13T02:49:09.808Z,7.30
2023-04-13T02:53:15.472Z,7.30
2023-04-13T02:57:18.899Z,7.40
2023-04-13T03:01:25.147Z,7.40
2023-04-13T03:05:29.086Z,7.40
2023-04-13T03:09:34.633Z,7.40
2023-04-13T03:13:38.350Z,7.40
2023-04-13T03:17:41.852Z,7.50
2023-04-13T03:21:45.633Z,7.40
2023-04-13T03:25:50.475Z,7.50
2023-04-13T03:29:53.895Z,7.50
2023-04-13T03:33:58.528Z,7.40
2023-04-13T03:38:02.511Z,7.40
2023-04-13T03:42:07.752Z,7.40
2023-04-13T03:46:11.495Z,7.50
2023-04-13T03:50:14.978Z,7.50
2023-04-13T03:54:18.700Z,7.50
2023-04-13T03:58:23.583Z,7.50
2023-04-13T04:02:27.822Z,7.40
2023-04-13T04:06:31.409Z,7.40
2023-04-13T04:10:37.041Z,7.40
2023-04-13T04:14:42.708Z,7.50
2023-04-13T04:18:46.241Z,7.40
2023-04-13T04:22:52.751Z,7.40
2023-04-13T04:26:58.155Z,7.40
2023-04-13T04:31:05.215Z,7.40
2023-04-13T04:35:09.892Z,7.40
2023-04-13T04:39:14.949Z,7.40
2023-04-13T04:43:18.636Z,7.40
2023-04-13T04:47:24.605Z,7.40
2023-04-13T04:51:28.753Z,7.40
2023-04-13T04:55:32.418Z,7.40
2023-04-13T04:59:35.858Z,7.40
2023-04-13T05:03:42.326Z,7.50
2023-04-13T05:07:46.222Z,7.40
2023-04-13T05:11:49.637Z,7.40
2023-04-13T05:15:53.458Z,7.50
2023-04-13T05:19:58.648Z,7.50
2023-04-13T05:24:02.322Z,7.50
2023-04-13T05:28:05.817Z,7.50
2023-04-13T05:32:09.513Z,7.60
2023-04-13T05:36:14.516Z,7.70
2023-04-13T05:40:18.698Z,7.80
2023-04-13T05:44:22.399Z,7.80
2023-04-13T05:48:26.675Z,7.80
2023-04-13T05:52:31.722Z,7.80
2023-04-13T05:56:35.201Z,7.70
2023-04-13T06:00:39.017Z,7.60
2023-04-13T06:04:43.531Z,7.80
2023-04-13T06:08:48.882Z,7.70
2023-04-13T06:12:53.319Z,7.70
2023-04-13T06:16:57.415Z,7.80
2023-04-13T06:21:00.967Z,7.90
2023-04-13T06:25:06.808Z,7.90
2023-04-13T06:29:10.374Z,7.90
2023-04-13T06:33:15.226Z,8.00
2023-04-13T06:37:20.475Z,8.20
2023-04-13T06:41:25.437Z,8.20
2023-04-13T06:45:30.940Z,8.30
2023-04-13T06:49:34.659Z,8.40
2023-04-13T06:53:38.434Z,8.50
2023-04-13T06:57:43.301Z,8.50
2023-04-13T07:01:47.241Z,8.40
2023-04-13T07:05:50.910Z,8.50
2023-04-13T07:09:54.385Z,8.50
2023-04-13T07:13:59.476Z,8.50
2023-04-13T07:18:02.975Z,8.50
2023-04-13T07:22:06.628Z,8.50
2023-04-13T07:26:14.883Z,8.50
2023-04-13T07:30:20.119Z,8.40
2023-04-13T07:34:23.522Z,8.50
2023-04-13T07:38:27.168Z,8.60
2023-04-13T07:42:30.633Z,8.70
2023-04-13T07:46:36.011Z,8.70
2023-04-13T07:50:43.108Z,8.80
2023-04-13T07:54:46.783Z,8.80
2023-04-13T07:58:50.763Z,8.70
2023-04-13T08:02:57.731Z,8.80
2023-04-13T08:07:04.996Z,8.90
2023-04-13T08:11:08.916Z,8.80
2023-04-13T08:15:12.892Z,8.90
2023-04-13T08:19:18.260Z,8.90
2023-04-13T08:23:21.916Z,8.90
2023-04-13T08:27:26.161Z,8.90
2023-04-13T08:31:30.773Z,8.90
2023-04-13T08:35:39.244Z,9.10
2023-04-13T08:39:42.670Z,9.10
2023-04-13T08:43:48.249Z,9.10
2023-04-13T08:47:52.416Z,9.30
2023-04-13T08:52:01.105Z,9.30
2023-04-13T08:56:08.865Z,9.30
2023-04-13T09:00:18.504Z,9.30
2023-04-13T09:04:24.163Z,9.40
2023-04-13T09:08:34.803Z,9.40
2023-04-13T09:12:38.275Z,9.60
2023-04-13T09:16:43.022Z,9.80
2023-04-13T09:20:57.777Z,9.70
2023-04-13T09:25:02.585Z,9.60
2023-04-13T09:29:06.340Z,9.50
2023-04-13T09:33:11.950Z,9.50
2023-04-13T09:37:15.402Z,9.40
2023-04-13T09:41:30.430Z,9.30
2023-04-13T09:45:37.581Z,9.20
2023-04-13T09:49:41.913Z,9.10
2023-04-13T09:53:47.654Z,8.90
2023-04-13T09:57:52.737Z,8.90
2023-04-13T10:01:56.660Z,8.90
2023-04-13T10:06:01.228Z,8.80
2023-04-13T10:10:05.133Z,8.80
2023-04-13T10:14:15.800Z,8.70
2023-04-13T10:18:36.732Z,8.70
2023-04-13T10:22:41.876Z,8.60
2023-04-13T10:26:45.865Z,8.70
2023-04-13T10:30:53.904Z,8.60
2023-04-13T10:34:57.569Z,8.70
2023-04-13T10:39:01.471Z,8.80
2023-04-13T10:43:05.162Z,8.80
2023-04-13T10:47:11.350Z,8.70
2023-04-13T10:51:15.052Z,8.70
2023-04-13T10:55:19.969Z,8.80
2023-04-13T10:59:23.438Z,8.80
2023-04-13T11:03:30.576Z,8.80
2023-04-13T11:07:34.199Z,8.80
2023-04-13T11:11:39.876Z,8.80
2023-04-13T11:15:43.740Z,9.20
2023-04-13T11:19:52.827Z,9.40
2023-04-13T11:23:56.528Z,9.70
2023-04-13T11:28:00.982Z,9.60
2023-04-13T11:32:06.108Z,9.30
2023-04-13T11:36:12.973Z,9.20
2023-04-13T11:40:21.582Z,9.20
2023-04-13T11:44:25.833Z,9.10
2023-04-13T11:48:29.480Z,9.20
2023-04-13T11:52:35.859Z,9.40
2023-04-13T11:56:39.394Z,9.80
2023-04-13T12:00:43.351Z,10.10
2023-04-13T12:04:50.580Z,10.20
2023-04-13T12:09:09.285Z,10.40
2023-04-13T12:21:28.865Z,9.90
2023-04-13T12:25:35.887Z,9.90
2023-04-13T12:29:40.676Z,9.90
2023-04-13T12:33:44.137Z,10.00
2023-04-13T12:37:49.009Z,10.00
2023-04-13T12:41:54.327Z,9.80
2023-04-13T12:45:58.081Z,9.60
2023-04-13T12:50:01.513Z,9.50
2023-04-13T12:54:08.944Z,9.60
2023-04-13T12:58:13.732Z,9.50
2023-04-13T13:02:17.215Z,9.50
2023-04-13T13:06:21.000Z,9.10
2023-04-13T13:10:29.494Z,9.00
2023-04-13T13:14:34.867Z,9.00
2023-04-13T13:18:49.783Z,9.00
2023-04-13T13:22:54.948Z,9.10
2023-04-13T13:27:19.608Z,9.20
2023-04-13T13:31:24.011Z,9.30
2023-04-13T13:35:28.183Z,9.10
2023-04-13T13:39:32.382Z,9.10
2023-04-13T13:43:37.267Z,9.10
2023-04-13T13:47:42.134Z,9.10
2023-04-13T13:51:45.609Z,9.00
2023-04-13T13:55:49.993Z,9.10
2023-04-13T13:59:53.350Z,9.20
2023-04-13T14:03:59.407Z,9.30
2023-04-13T14:08:02.907Z,9.20
2023-04-13T14:12:08.924Z,9.20
2023-04-13T14:16:12.378Z,9.20
2023-04-13T14:20:17.361Z,9.20
2023-04-13T14:24:21.248Z,9.20
2023-04-13T14:28:24.612Z,9.10
2023-04-13T14:32:28.270Z,9.00
2023-04-13T14:36:33.092Z,9.00
2023-04-13T14:40:36.872Z,9.00
2023-04-13T14:44:40.434Z,9.10
2023-04-13T14:48:43.991Z,9.20
2023-04-13T14:52:49.228Z,9.30
2023-04-13T14:56:52.633Z,9.20
2023-04-13T15:00:56.153Z,9.20
2023-04-13T15:05:00.034Z,9.10
2023-04-13T15:09:06.419Z,9.00
2023-04-13T15:13:09.920Z,8.90
2023-04-13T15:17:13.641Z,8.70
2023-04-13T15:21:17.074Z,8.70
2023-04-13T15:25:22.154Z,8.60
2023-04-13T15:29:27.025Z,8.40
2023-04-13T15:33:30.900Z,8.20
2023-04-13T15:37:34.534Z,8.20
2023-04-13T15:41:40.062Z,8.20
2023-04-13T15:45:43.590Z,8.20
2023-04-13T15:49:47.376Z,8.10
2023-04-13T15:53:50.860Z,8.20
2023-04-13T15:57:57.346Z,8.20
2023-04-13T16:02:01.058Z,8.10
2023-04-13T16:06:05.026Z,8.00
2023-04-13T16:10:15.719Z,8.10
2023-04-13T16:14:20.622Z,8.10
2023-04-13T16:18:28.886Z,8.10
2023-04-13T16:22:34.129Z,8.10
2023-04-13T16:26:39.883Z,8.10
2023-04-13T16:30:45.447Z,8.10
2023-04-13T16:34:49.344Z,7.90
2023-04-13T16:38:55.044Z,7.90
2023-04-13T16:42:59.242Z,7.80
2023-04-13T16:47:05.139Z,7.80
2023-04-13T16:51:08.817Z,7.70
2023-04-13T16:55:18.043Z,7.70
2023-04-13T16:59:22.401Z,7.70
2023-04-13T17:03:28.724Z,7.60
2023-04-13T17:07:32.545Z,7.50
2023-04-13T17:11:36.716Z,7.50
2023-04-13T17:15:41.077Z,7.40
2023-04-13T17:19:47.762Z,7.40
2023-04-13T17:23:51.936Z,7.50
2023-04-13T17:27:55.777Z,7.40
2023-04-13T17:31:59.976Z,7.30
2023-04-13T17:36:06.320Z,7.20
2023-04-13T17:40:11.864Z,7.20
2023-04-13T17:44:15.743Z,7.30
2023-04-13T17:48:19.813Z,7.20
2023-04-13T17:52:25.011Z,7.30
2023-04-13T17:56:29.648Z,7.30
2023-04-13T18:00:35.132Z,7.20
2023-04-13T18:04:39.330Z,7.20
2023-04-13T18:08:44.707Z,7.20
2023-04-13T18:12:48.474Z,7.20
2023-04-13T18:16:54.372Z,7.20
2023-04-13T18:20:58.740Z,7.20
2023-04-13T18:25:05.149Z,7.20
2023-04-13T18:29:10.176Z,7.20
2023-04-13T18:33:14.607Z,7.20
2023-04-13T18:37:22.145Z,7.20
2023-04-13T18:41:27.926Z,7.20
2023-04-13T18:45:35.394Z,7.10
2023-04-13T18:49:43.418Z,7.20
2023-04-13T18:53:50.222Z,7.20
2023-04-13T18:58:02.242Z,7.30
2023-04-13T19:02:14.111Z,7.30
2023-04-13T19:06:19.493Z,7.10
2023-04-13T19:10:26.064Z,7.10
2023-04-13T19:14:47.504Z,7.20
2023-04-13T19:18:53.028Z,7.20
2023-04-13T19:22:59.036Z,7.10
2023-04-13T19:27:10.748Z,7.00
2023-04-13T19:31:24.995Z,7.00
2023-04-13T19:35:40.527Z,7.00
2023-04-13T19:39:47.718Z,6.90
2023-04-13T19:43:53.305Z,6.90
2023-04-13T19:47:58.833Z,6.90
2023-04-13T19:52:03.218Z,6.90
2023-04-13T19:56:07.329Z,6.80
2023-04-13T20:00:22.078Z,6.90
2023-04-13T20:04:27.793Z,6.90
2023-04-13T20:08:33.043Z,6.80
2023-04-13T20:12:37.001Z,6.90
2023-04-13T20:16:40.672Z,6.90
2023-04-13T20:20:46.274Z,6.80
2023-04-13T20:24:51.918Z,6.80
2023-04-13T20:28:56.301Z,6.60
2023-04-13T20:33:00.853Z,6.60
2023-04-13T20:37:10.211Z,6.60
2023-04-13T20:41:14.733Z,6.60
2023-04-13T20:45:20.789Z,6.60
2023-04-13T20:49:25.380Z,6.50
2023-04-13T20:53:32.611Z,6.50
2023-04-13T20:57:38.813Z,6.30
2023-04-13T21:01:42.870Z,6.20
2023-04-13T21:05:46.619Z,6.20
2023-04-13T21:09:51.584Z,6.10
2023-04-13T21:13:55.233Z,6.00
2023-04-13T21:17:58.691Z,5.80
2023-04-13T21:22:02.112Z,5.70
2023-04-13T21:26:07.889Z,5.70
2023-04-13T21:30:12.237Z,5.70
2023-04-13T21:34:16.211Z,5.60
2023-04-13T21:38:19.779Z,5.50
2023-04-13T21:42:24.612Z,5.30
2023-04-13T21:46:28.602Z,5.10
2023-04-13T21:50:32.157Z,5.00
2023-04-13T21:54:35.732Z,4.80
2023-04-13T21:58:41.736Z,4.90
2023-04-13T22:02:45.826Z,4.90
2023-04-13T22:06:49.477Z,4.80
2023-04-13T22:10:53.172Z,4.80
2023-04-13T22:14:58.104Z,4.80
2023-04-13T22:19:02.070Z,4.60
2023-04-13T22:23:05.755Z,4.60
2023-04-13T22:27:09.348Z,4.70
2023-04-13T22:31:14.230Z,4.60
2023-04-13T22:35:17.894Z,4.60
2023-04-13T22:39:21.709Z,4.70
2023-04-13T22:43:25.950Z,4.60
2023-04-13T22:47:30.705Z,4.60
2023-04-13T22:51:40.166Z,4.50
2023-04-13T22:55:43.655Z,4.50
2023-04-13T22:59:47.514Z,4.40
2023-04-13T23:03:52.957Z,4.50
2023-04-13T23:07:56.497Z,4.40
2023-04-13T23:11:59.992Z,4.30
2023-04-13T23:16:05.302Z,4.40
2023-04-13T23:20:11.043Z,4.40
2023-04-13T23:24:15.616Z,4.50
2023-04-13T23:28:19.241Z,4.40
2023-04-13T23:32:22.800Z,4.30
2023-04-13T23:36:27.811Z,4.30
2023-04-13T23:40:31.332Z,4.30
2023-04-13T23:44:34.858Z,4.40
2023-04-13T23:48:38.281Z,4.40
2023-04-13T23:52:43.204Z,4.30
2023-04-13T23:56:46.617Z,4.30
